DAL8923 KEWR-KIND
Flight info
| Callsign | DAL8923 |
|---|---|
| Flight time | N/A |
| Altitude | 38000 |
| Route | ZIMMZ Q42 HIDON RINTE SNKPT2 |
| Aircraft | B752/M-SDE2E3FGHIJ3J4J7RWXY/LB1 |
Departure
| Time | 2026-04-30 20:05 |
|---|---|
| Airport | Newark Liberty International Airport (KEWR) |
Arrival
| Time | N/A |
|---|---|
| Airport | Indianapolis International Airport (KIND) |
| Time | Latitude | Longitude | Altitude | Speed | Heading |
|---|---|---|---|---|---|
| 2026-04-30 19:41 | 40.69618 | -74.17227 | 18 ft | 0 kts | 243° |
| 2026-04-30 19:55 | 40.69621 | -74.17220 | 17 ft | 2 kts | 243° |
| 2026-04-30 19:55 | 40.69626 | -74.17209 | 17 ft | 2 kts | 244° |
| 2026-04-30 19:55 | 40.69639 | -74.17183 | 17 ft | 3 kts | 222° |
| 2026-04-30 19:56 | 40.69656 | -74.17172 | 17 ft | 2 kts | 183° |
| 2026-04-30 19:56 | 40.69671 | -74.17176 | 17 ft | 2 kts | 141° |
| 2026-04-30 19:56 | 40.69683 | -74.17184 | 17 ft | 2 kts | 209° |
| 2026-04-30 19:56 | 40.69701 | -74.17178 | 17 ft | 2 kts | 167° |
| 2026-04-30 19:57 | 40.69713 | -74.17188 | 17 ft | 1 kts | 115° |
| 2026-04-30 19:57 | 40.69716 | -74.17206 | 17 ft | 2 kts | 95° |
| 2026-04-30 19:57 | 40.69716 | -74.17226 | 17 ft | 2 kts | 82° |
| 2026-04-30 19:57 | 40.69714 | -74.17236 | 17 ft | 0 kts | 72° |
| 2026-04-30 19:58 | 40.69714 | -74.17239 | 17 ft | 0 kts | 73° |
| 2026-04-30 20:00 | 40.69720 | -74.17227 | 17 ft | 6 kts | 49° |
| 2026-04-30 20:00 | 40.69767 | -74.17165 | 17 ft | 11 kts | 62° |
| 2026-04-30 20:00 | 40.69736 | -74.17078 | 17 ft | 11 kts | 141° |
| 2026-04-30 20:00 | 40.69666 | -74.17038 | 17 ft | 11 kts | 160° |
| 2026-04-30 20:01 | 40.69643 | -74.16898 | 17 ft | 8 kts | 72° |
| 2026-04-30 20:01 | 40.69662 | -74.16824 | 17 ft | 8 kts | 71° |
| 2026-04-30 20:01 | 40.69684 | -74.16757 | 17 ft | 8 kts | 54° |
| 2026-04-30 20:02 | 40.69770 | -74.16681 | 17 ft | 7 kts | 27° |
| 2026-04-30 20:02 | 40.69817 | -74.16650 | 17 ft | 7 kts | 24° |
| 2026-04-30 20:03 | 40.69946 | -74.16573 | 17 ft | 16 kts | 26° |
| 2026-04-30 20:03 | 40.70029 | -74.16518 | 17 ft | 8 kts | 28° |
| 2026-04-30 20:03 | 40.70057 | -74.16460 | 17 ft | 7 kts | 82° |
| 2026-04-30 20:03 | 40.70048 | -74.16400 | 17 ft | 7 kts | 122° |
| 2026-04-30 20:04 | 40.70010 | -74.16375 | 17 ft | 5 kts | 188° |
| 2026-04-30 20:04 | 40.69994 | -74.16381 | 17 ft | 0 kts | 202° |
| 2026-04-30 20:05 | 40.69710 | -74.16560 | 17 ft | 85 kts | 207° |
| 2026-04-30 20:05 | 40.69013 | -74.17006 | 19 ft | 154 kts | 207° |
| 2026-04-30 20:05 | 40.66913 | -74.18468 | 1330 ft | 198 kts | 211° |
| 2026-04-30 20:06 | 40.65679 | -74.19308 | 1654 ft | 218 kts | 210° |
| 2026-04-30 20:06 | 40.64315 | -74.20225 | 1987 ft | 239 kts | 210° |
| 2026-04-30 20:06 | 40.62875 | -74.21195 | 2406 ft | 257 kts | 209° |
| 2026-04-30 20:06 | 40.61349 | -74.22222 | 2480 ft | 271 kts | 210° |
| 2026-04-30 20:07 | 40.59859 | -74.23516 | 2529 ft | 262 kts | 227° |
| 2026-04-30 20:07 | 40.58937 | -74.25384 | 2622 ft | 259 kts | 255° |
| 2026-04-30 20:07 | 40.58516 | -74.29690 | 4089 ft | 260 kts | 268° |
| 2026-04-30 20:08 | 40.58401 | -74.31781 | 4913 ft | 260 kts | 268° |
| 2026-04-30 20:08 | 40.58292 | -74.33858 | 5661 ft | 262 kts | 268° |
| 2026-04-30 20:08 | 40.58187 | -74.36036 | 6438 ft | 264 kts | 268° |
| 2026-04-30 20:08 | 40.58090 | -74.38245 | 7240 ft | 264 kts | 268° |
| 2026-04-30 20:09 | 40.58004 | -74.40472 | 8068 ft | 265 kts | 268° |
| 2026-04-30 20:09 | 40.58017 | -74.42797 | 8802 ft | 269 kts | 281° |
| 2026-04-30 20:09 | 40.59662 | -74.47107 | 10381 ft | 275 kts | 295° |
| 2026-04-30 20:10 | 40.61328 | -74.51653 | 11063 ft | 310 kts | 292° |
| 2026-04-30 20:10 | 40.62199 | -74.54253 | 11388 ft | 328 kts | 291° |
| 2026-04-30 20:10 | 40.63082 | -74.56969 | 11711 ft | 346 kts | 291° |
| 2026-04-30 20:11 | 40.64859 | -74.62542 | 13102 ft | 355 kts | 290° |
| 2026-04-30 20:11 | 40.65756 | -74.65389 | 13763 ft | 359 kts | 289° |
| 2026-04-30 20:11 | 40.66642 | -74.68214 | 14524 ft | 360 kts | 289° |
| 2026-04-30 20:12 | 40.68457 | -74.74021 | 15861 ft | 366 kts | 288° |
| 2026-04-30 20:12 | 40.69340 | -74.76858 | 16494 ft | 368 kts | 288° |
| 2026-04-30 20:12 | 40.70247 | -74.79773 | 17141 ft | 370 kts | 288° |
| 2026-04-30 20:13 | 40.71097 | -74.82507 | 17663 ft | 373 kts | 288° |
| 2026-04-30 20:13 | 40.71956 | -74.85276 | 18279 ft | 373 kts | 288° |
| 2026-04-30 20:13 | 40.72904 | -74.88335 | 18838 ft | 377 kts | 288° |
| 2026-04-30 20:13 | 40.73794 | -74.91211 | 19373 ft | 380 kts | 287° |
| 2026-04-30 20:14 | 40.74761 | -74.94340 | 19971 ft | 382 kts | 288° |
| 2026-04-30 20:14 | 40.75754 | -74.97552 | 20542 ft | 385 kts | 287° |
| 2026-04-30 20:14 | 40.76726 | -75.00705 | 21094 ft | 388 kts | 287° |
| 2026-04-30 20:14 | 40.77752 | -75.04034 | 21632 ft | 392 kts | 287° |
| 2026-04-30 20:15 | 40.78764 | -75.07356 | 22201 ft | 392 kts | 285° |
| 2026-04-30 20:15 | 40.79463 | -75.10770 | 22745 ft | 389 kts | 275° |
| 2026-04-30 20:15 | 40.79647 | -75.14255 | 23209 ft | 388 kts | 265° |
| 2026-04-30 20:15 | 40.79479 | -75.16623 | 23567 ft | 388 kts | 260° |
| 2026-04-30 20:16 | 40.79153 | -75.19235 | 23889 ft | 390 kts | 259° |
| 2026-04-30 20:16 | 40.78706 | -75.22691 | 24413 ft | 391 kts | 258° |
| 2026-04-30 20:16 | 40.78227 | -75.26222 | 24834 ft | 395 kts | 258° |
| 2026-04-30 20:16 | 40.77737 | -75.29737 | 25303 ft | 396 kts | 258° |
| 2026-04-30 20:17 | 40.77232 | -75.33287 | 25769 ft | 398 kts | 258° |
| 2026-04-30 20:17 | 40.76685 | -75.36794 | 26110 ft | 401 kts | 254° |
| 2026-04-30 20:17 | 40.75721 | -75.40196 | 26560 ft | 402 kts | 246° |
| 2026-04-30 20:17 | 40.74536 | -75.43446 | 26887 ft | 405 kts | 245° |
| 2026-04-30 20:18 | 40.73318 | -75.46780 | 27331 ft | 406 kts | 245° |
| 2026-04-30 20:18 | 40.72119 | -75.50030 | 27654 ft | 409 kts | 245° |
| 2026-04-30 20:18 | 40.70885 | -75.53359 | 28118 ft | 409 kts | 245° |
| 2026-04-30 20:18 | 40.69653 | -75.56669 | 28370 ft | 414 kts | 245° |
| 2026-04-30 20:19 | 40.68409 | -75.60001 | 28743 ft | 415 kts | 245° |
| 2026-04-30 20:19 | 40.67141 | -75.63392 | 29097 ft | 417 kts | 245° |
| 2026-04-30 20:19 | 40.65923 | -75.66637 | 29464 ft | 417 kts | 244° |
| 2026-04-30 20:19 | 40.64708 | -75.69875 | 29696 ft | 421 kts | 245° |
| 2026-04-30 20:20 | 40.63470 | -75.73169 | 30101 ft | 421 kts | 244° |
| 2026-04-30 20:20 | 40.62256 | -75.76394 | 30417 ft | 422 kts | 245° |
| 2026-04-30 20:20 | 40.60957 | -75.79841 | 30763 ft | 422 kts | 244° |
| 2026-04-30 20:20 | 40.59670 | -75.83244 | 31123 ft | 422 kts | 244° |
| 2026-04-30 20:21 | 40.58362 | -75.86693 | 31497 ft | 421 kts | 244° |
| 2026-04-30 20:21 | 40.57079 | -75.90073 | 31798 ft | 421 kts | 244° |
| 2026-04-30 20:21 | 40.55801 | -75.93434 | 32157 ft | 420 kts | 244° |
| 2026-04-30 20:21 | 40.54494 | -75.96866 | 32406 ft | 421 kts | 245° |
| 2026-04-30 20:22 | 40.53205 | -76.00250 | 32742 ft | 420 kts | 244° |
| 2026-04-30 20:22 | 40.51894 | -76.03687 | 33059 ft | 419 kts | 244° |
| 2026-04-30 20:22 | 40.50599 | -76.07077 | 33338 ft | 419 kts | 244° |
| 2026-04-30 20:22 | 40.49296 | -76.10482 | 33601 ft | 418 kts | 244° |
| 2026-04-30 20:23 | 40.47992 | -76.13888 | 33776 ft | 419 kts | 244° |
| 2026-04-30 20:23 | 40.46708 | -76.17238 | 34058 ft | 418 kts | 244° |
| 2026-04-30 20:23 | 40.45387 | -76.20682 | 34205 ft | 419 kts | 244° |
| 2026-04-30 20:23 | 40.44089 | -76.24058 | 34483 ft | 417 kts | 244° |
| 2026-04-30 20:24 | 40.42804 | -76.27399 | 34644 ft | 418 kts | 244° |
| 2026-04-30 20:24 | 40.41499 | -76.30789 | 34870 ft | 416 kts | 244° |
| 2026-04-30 20:24 | 40.40202 | -76.34152 | 35036 ft | 417 kts | 244° |
| 2026-04-30 20:24 | 40.38889 | -76.37554 | 35204 ft | 417 kts | 244° |
| 2026-04-30 20:25 | 40.36290 | -76.44277 | 35525 ft | 416 kts | 244° |
| 2026-04-30 20:25 | 40.35031 | -76.47636 | 35669 ft | 416 kts | 248° |
| 2026-04-30 20:26 | 40.33563 | -76.54858 | 35922 ft | 415 kts | 258° |
| 2026-04-30 20:26 | 40.32430 | -76.62215 | 36139 ft | 416 kts | 258° |
| 2026-04-30 20:26 | 40.31898 | -76.65707 | 36268 ft | 415 kts | 258° |
| 2026-04-30 20:27 | 40.30830 | -76.72736 | 36429 ft | 416 kts | 258° |
| 2026-04-30 20:27 | 40.29736 | -76.79938 | 36616 ft | 417 kts | 258° |
| 2026-04-30 20:28 | 40.28618 | -76.87281 | 36828 ft | 416 kts | 258° |
| 2026-04-30 20:28 | 40.27487 | -76.94681 | 36950 ft | 417 kts | 258° |
| 2026-04-30 20:29 | 40.26358 | -77.02043 | 37155 ft | 416 kts | 258° |
| 2026-04-30 20:30 | 40.24653 | -77.13094 | 37352 ft | 415 kts | 258° |
| 2026-04-30 20:30 | 40.22943 | -77.24104 | 37510 ft | 416 kts | 258° |
| 2026-04-30 20:31 | 40.21218 | -77.35144 | 37680 ft | 415 kts | 258° |